createdAt,value
2023-03-11T12:01:57.387Z,74.75
2023-03-11T12:03:56.092Z,75.00
2023-03-11T12:05:35.428Z,72.00
2023-03-11T12:07:41.523Z,68.20
2023-03-11T12:09:29.271Z,64.40
2023-03-11T12:11:10.923Z,67.00
2023-03-11T12:12:49.707Z,62.25
2023-03-11T12:14:39.647Z,53.50
2023-03-11T12:16:15.357Z,53.25
2023-03-11T12:17:51.361Z,51.50
2023-03-11T12:20:02.086Z,52.00
2023-03-11T12:22:20.350Z,52.67
2023-03-11T12:24:15.290Z,53.00
2023-03-11T12:26:21.310Z,48.00
2023-03-11T12:28:04.342Z,40.75
2023-03-11T12:29:39.426Z,47.50
2023-03-11T12:31:13.388Z,47.25
2023-03-11T12:32:51.468Z,43.50
2023-03-11T12:34:27.230Z,36.25
2023-03-11T12:35:59.348Z,43.25
2023-03-11T12:37:31.434Z,40.25
2023-03-11T12:41:16.954Z,38.00
2023-03-11T12:42:49.560Z,38.75
2023-03-11T12:44:46.282Z,35.25
2023-03-11T12:46:58.613Z,36.75
2023-03-11T12:48:30.647Z,35.75
2023-03-11T12:50:49.392Z,36.25
2023-03-11T12:52:37.793Z,35.25
2023-03-11T12:54:39.682Z,34.75
2023-03-11T12:56:31.080Z,35.50
2023-03-11T12:58:24.539Z,33.80
2023-03-11T13:00:02.185Z,34.75
2023-03-11T13:01:52.590Z,36.00
2023-03-11T13:03:41.410Z,38.25
2023-03-11T13:05:38.132Z,35.25
2023-03-11T13:07:27.093Z,32.25
2023-03-11T13:09:24.326Z,35.00
2023-03-11T13:10:56.681Z,36.25
2023-03-11T13:12:45.718Z,38.75
2023-03-11T13:14:34.217Z,37.75
2023-03-11T13:16:38.804Z,45.25
2023-03-11T13:18:40.549Z,37.00
2023-03-11T13:20:48.018Z,40.00
2023-03-11T13:22:44.638Z,40.25
2023-03-11T13:24:20.370Z,40.50
2023-03-11T13:25:52.186Z,35.50
2023-03-11T13:27:35.061Z,35.75
2023-03-11T13:29:14.947Z,41.50
2023-03-11T13:30:56.765Z,40.25
2023-03-11T13:33:06.070Z,40.00
2023-03-11T13:35:14.405Z,51.75
2023-03-11T13:37:11.796Z,57.25
2023-03-11T13:39:26.158Z,68.00
2023-03-11T13:41:05.231Z,76.00
2023-03-11T13:42:42.640Z,80.50
2023-03-11T13:44:33.937Z,81.50
2023-03-11T13:46:12.725Z,82.25
2023-03-11T13:47:49.701Z,83.00
2023-03-11T13:49:50.518Z,88.75
2023-03-11T13:51:33.923Z,91.00
2023-03-11T13:53:13.819Z,87.00
2023-03-11T13:54:49.202Z,88.50
2023-03-11T13:56:27.204Z,95.50
2023-03-11T13:57:59.285Z,89.50
2023-03-11T13:59:33.074Z,100.25
2023-03-11T14:01:05.217Z,103.50
2023-03-11T14:02:37.529Z,105.50
2023-03-11T14:04:13.399Z,101.75
2023-03-11T14:05:58.487Z,98.75
2023-03-11T14:07:32.265Z,105.25
2023-03-11T14:09:12.142Z,109.00
2023-03-11T14:11:12.610Z,101.00
2023-03-11T14:12:50.155Z,104.75
2023-03-11T14:14:55.370Z,109.50
2023-03-11T14:16:36.060Z,107.50
2023-03-11T14:18:29.516Z,107.50
2023-03-11T14:20:19.116Z,98.75
2023-03-11T14:21:54.941Z,99.50
2023-03-11T14:23:35.357Z,99.00
2023-03-11T14:25:20.869Z,96.50
2023-03-11T14:26:56.585Z,93.25
2023-03-11T14:28:28.670Z,84.75
2023-03-11T14:30:00.818Z,92.25
2023-03-11T14:31:36.202Z,86.50
2023-03-11T14:33:33.642Z,84.25
2023-03-11T14:35:20.545Z,82.75
2023-03-11T14:36:57.489Z,76.25
2023-03-11T14:38:30.954Z,75.25
2023-03-11T14:40:03.618Z,75.50
2023-03-11T14:41:35.579Z,77.20
2023-03-11T14:44:03.107Z,71.20
2023-03-11T14:45:37.688Z,69.60
2023-03-11T14:47:23.334Z,64.40
2023-03-11T14:48:56.809Z,62.25
2023-03-11T14:50:33.816Z,60.50
2023-03-11T14:54:34.592Z,53.75
2023-03-11T14:56:25.205Z,52.00
2023-03-11T14:58:31.871Z,48.50
2023-03-11T15:00:08.032Z,49.75
2023-03-11T15:01:42.171Z,47.50
2023-03-11T15:03:17.414Z,44.50
2023-03-11T15:04:53.854Z,40.50
2023-03-11T15:06:28.630Z,44.25
2023-03-11T15:08:01.538Z,42.00
2023-03-11T15:09:33.570Z,43.25
2023-03-11T15:11:16.824Z,52.75
2023-03-11T15:12:50.695Z,61.00
2023-03-11T15:14:25.528Z,58.00
2023-03-11T15:16:05.374Z,55.75
2023-03-11T15:17:46.035Z,57.00
2023-03-11T15:19:48.528Z,55.50
2023-03-11T15:21:24.368Z,79.00
2023-03-11T15:23:00.982Z,95.50
2023-03-11T15:24:33.648Z,84.25
2023-03-11T15:26:09.274Z,88.00
2023-03-11T15:27:41.162Z,82.75
2023-03-11T15:29:18.888Z,83.50
2023-03-11T15:31:17.204Z,74.25
2023-03-11T15:32:52.084Z,80.00
2023-03-11T15:34:32.214Z,73.50
2023-03-11T15:36:04.469Z,70.40
2023-03-11T15:37:36.651Z,68.20
2023-03-11T15:39:29.372Z,72.40
2023-03-11T15:41:29.400Z,68.40
2023-03-11T15:43:19.386Z,63.20
2023-03-11T15:45:18.929Z,61.40
2023-03-11T15:47:26.266Z,65.75
2023-03-11T15:49:03.419Z,61.25
2023-03-11T15:50:52.198Z,54.75
2023-03-11T15:52:25.569Z,58.50
2023-03-11T15:53:57.495Z,55.25
2023-03-11T15:55:29.548Z,56.50
2023-03-11T15:57:01.769Z,51.50
2023-03-11T15:58:33.737Z,51.00
2023-03-11T16:00:11.753Z,44.25
2023-03-11T16:01:47.316Z,50.50
2023-03-11T16:03:22.673Z,47.50
2023-03-11T16:04:59.143Z,45.75
2023-03-11T16:06:31.253Z,44.50
2023-03-11T16:08:03.346Z,43.75
2023-03-11T16:09:35.274Z,38.75
2023-03-11T16:11:13.066Z,42.00
2023-03-11T16:13:16.752Z,36.00
2023-03-11T16:15:45.625Z,36.00
2023-03-11T16:17:24.565Z,35.25
2023-03-11T16:18:58.165Z,37.00
2023-03-11T16:22:53.848Z,38.00
2023-03-11T16:24:25.884Z,49.50
2023-03-11T16:25:59.558Z,52.00
2023-03-11T16:27:31.720Z,53.25
2023-03-11T16:29:18.310Z,54.00
2023-03-11T16:31:20.439Z,57.25
2023-03-11T16:32:52.765Z,55.50
2023-03-11T16:34:26.601Z,56.75
2023-03-11T16:36:00.569Z,55.25
2023-03-11T16:37:32.649Z,51.50
2023-03-11T16:39:04.653Z,49.25
2023-03-11T16:40:36.774Z,51.75
2023-03-11T16:42:10.634Z,55.25
2023-03-11T16:43:45.171Z,55.00
2023-03-11T16:45:21.182Z,53.25
2023-03-11T16:46:53.171Z,58.75
2023-03-11T16:48:25.243Z,56.75
2023-03-11T16:49:57.288Z,65.40
2023-03-11T16:51:29.413Z,67.60
2023-03-11T16:53:01.307Z,72.20
2023-03-11T16:54:33.400Z,118.00
2023-03-11T16:56:08.421Z,117.75
2023-03-11T16:57:40.364Z,103.75
2023-03-11T16:59:37.381Z,88.75
2023-03-11T17:01:13.812Z,71.50
2023-03-11T17:02:52.159Z,75.60
2023-03-11T17:04:24.171Z,74.25
2023-03-11T17:06:01.793Z,68.80
2023-03-11T17:07:38.132Z,70.40
2023-03-11T17:09:13.882Z,66.20
2023-03-11T17:10:46.412Z,54.75
2023-03-11T17:12:19.560Z,64.20
2023-03-11T17:13:51.532Z,70.20
2023-03-11T17:16:11.429Z,68.40
2023-03-11T17:17:43.608Z,70.75
2023-03-11T17:19:16.081Z,70.75
2023-03-11T17:21:15.877Z,71.25
2023-03-11T17:23:17.091Z,84.50
2023-03-11T17:24:49.993Z,78.75
2023-03-11T17:26:24.616Z,77.25
2023-03-11T17:27:57.985Z,74.75
2023-03-11T17:29:30.158Z,82.25
2023-03-11T17:31:02.115Z,77.75
2023-03-11T17:32:34.194Z,83.75
2023-03-11T17:34:06.190Z,79.75
2023-03-11T17:35:41.453Z,78.25
2023-03-11T17:39:17.458Z,78.75
2023-03-11T17:40:52.335Z,79.50
2023-03-11T17:42:26.564Z,74.75
2023-03-11T17:43:58.665Z,74.00
2023-03-11T17:45:31.011Z,72.20
2023-03-11T17:47:02.976Z,119.50
2023-03-11T17:48:35.224Z,171.25
2023-03-11T17:50:41.331Z,147.33
2023-03-11T17:52:20.009Z,136.67
2023-03-11T17:53:53.601Z,117.50
2023-03-11T17:55:30.102Z,112.75
2023-03-11T17:57:04.625Z,105.50
2023-03-11T17:58:38.581Z,101.75
2023-03-11T18:00:14.417Z,101.75
2023-03-11T18:01:47.907Z,93.50
2023-03-11T18:03:24.502Z,91.50
2023-03-11T18:07:26.165Z,102.75
2023-03-11T18:09:23.393Z,103.00
2023-03-11T18:11:22.121Z,97.25
2023-03-11T18:12:53.975Z,94.00
2023-03-11T18:14:29.121Z,94.50
2023-03-11T18:18:43.468Z,93.25
2023-03-11T18:20:24.183Z,91.50
2023-03-11T18:22:27.604Z,86.25
2023-03-11T18:24:02.916Z,82.50
2023-03-11T18:25:34.884Z,86.75
2023-03-11T18:27:33.986Z,88.25
2023-03-11T18:29:07.601Z,89.25
2023-03-11T18:30:41.406Z,90.00
2023-03-11T18:32:21.012Z,89.50
2023-03-11T18:33:56.958Z,92.25
2023-03-11T18:35:29.279Z,90.75
2023-03-11T18:37:01.285Z,95.50
2023-03-11T18:38:33.306Z,86.50
2023-03-11T18:42:03.239Z,96.25
2023-03-11T18:43:35.316Z,99.25
2023-03-11T18:45:14.188Z,99.00
2023-03-11T18:46:49.435Z,97.50
2023-03-11T18:48:25.342Z,96.00
2023-03-11T18:49:59.909Z,101.75
2023-03-11T18:51:32.242Z,102.00
2023-03-11T18:53:29.444Z,98.25
2023-03-11T18:55:01.404Z,96.75
2023-03-11T18:56:33.775Z,99.00
2023-03-11T18:58:14.030Z,95.25
2023-03-11T18:59:47.627Z,94.25
2023-03-11T19:01:20.904Z,93.50
2023-03-11T19:02:53.948Z,86.75
2023-03-11T19:04:32.425Z,113.00
2023-03-11T19:06:31.185Z,151.33
2023-03-11T19:08:06.480Z,138.00
2023-03-11T19:09:42.096Z,132.33
2023-03-11T19:11:40.966Z,126.67
2023-03-11T19:13:14.076Z,120.67
2023-03-11T19:14:47.059Z,115.00
2023-03-11T19:16:22.502Z,114.00
2023-03-11T19:18:05.820Z,103.75
2023-03-11T19:19:39.867Z,104.00
2023-03-11T19:21:14.382Z,101.50
2023-03-11T19:22:55.711Z,104.75
2023-03-11T19:24:27.534Z,102.25
2023-03-11T19:26:03.272Z,89.25
2023-03-11T19:27:41.356Z,88.25
2023-03-11T19:29:14.439Z,88.50
2023-03-11T19:30:56.422Z,88.50
2023-03-11T19:32:34.238Z,85.00
2023-03-11T19:34:31.234Z,92.00
2023-03-11T19:36:05.170Z,77.50
2023-03-11T19:37:40.991Z,83.25
2023-03-11T19:39:23.186Z,80.75
2023-03-11T19:41:19.606Z,77.75
2023-03-11T19:42:51.908Z,74.50
2023-03-11T19:44:27.751Z,77.25
2023-03-11T19:46:05.960Z,78.25
2023-03-11T19:47:40.318Z,72.75
2023-03-11T19:49:22.297Z,80.00
2023-03-11T19:50:58.599Z,78.75
2023-03-11T19:52:30.627Z,78.00
2023-03-11T19:54:02.611Z,67.25
2023-03-11T19:55:35.552Z,74.75
2023-03-11T19:57:12.858Z,83.75
2023-03-11T19:58:44.973Z,87.25
2023-03-11T20:00:23.880Z,75.75
2023-03-11T20:01:58.757Z,69.20
2023-03-11T20:03:30.877Z,69.50
2023-03-11T20:05:03.948Z,76.75
2023-03-11T20:06:36.169Z,74.25
2023-03-11T20:08:10.419Z,72.75
2023-03-11T20:09:46.638Z,78.00
2023-03-11T20:11:19.688Z,77.25
2023-03-11T20:13:02.392Z,76.25
2023-03-11T20:14:34.875Z,70.25
2023-03-11T20:16:12.423Z,71.75
2023-03-11T20:17:48.698Z,74.00
2023-03-11T20:19:20.806Z,70.60
2023-03-11T20:20:52.854Z,71.00
2023-03-11T20:22:27.457Z,67.40
2023-03-11T20:24:03.207Z,71.40
2023-03-11T20:25:35.585Z,73.00
2023-03-11T20:27:09.173Z,69.80
2023-03-11T20:28:43.846Z,66.20
2023-03-11T20:30:23.473Z,62.00
2023-03-11T20:31:59.694Z,64.80
2023-03-11T20:33:32.535Z,61.25
2023-03-11T20:35:05.021Z,57.00
2023-03-11T20:36:37.051Z,54.25
2023-03-11T20:38:14.840Z,56.75
2023-03-11T20:39:46.863Z,68.20
2023-03-11T20:41:19.967Z,54.25
2023-03-11T20:42:51.849Z,53.75
2023-03-11T20:44:26.115Z,57.75
2023-03-11T20:45:58.170Z,64.00
2023-03-11T20:47:30.162Z,64.40
2023-03-11T20:49:02.170Z,67.20
2023-03-11T20:50:34.395Z,63.20
2023-03-11T20:52:08.296Z,65.60
2023-03-11T20:53:40.619Z,64.20
2023-03-11T20:55:18.993Z,58.20
2023-03-11T20:56:52.459Z,66.20
2023-03-11T20:58:24.684Z,65.80
2023-03-11T20:59:56.749Z,64.40
2023-03-11T21:01:30.067Z,64.60
2023-03-11T21:03:02.220Z,56.50
2023-03-11T21:04:41.311Z,62.25
2023-03-11T21:06:22.570Z,58.75
2023-03-11T21:07:57.239Z,57.25
2023-03-11T21:09:29.382Z,55.00
2023-03-11T21:11:01.643Z,58.75
2023-03-11T21:12:35.878Z,54.25
2023-03-11T21:14:18.188Z,61.25
2023-03-11T21:15:58.676Z,54.00
2023-03-11T21:17:36.232Z,82.80
2023-03-11T21:19:14.580Z,172.50
2023-03-11T21:20:48.890Z,126.33
2023-03-11T21:22:25.303Z,130.67
2023-03-11T21:23:57.481Z,102.50
2023-03-11T21:25:31.442Z,89.50
2023-03-11T21:27:03.448Z,80.25
2023-03-11T21:28:35.535Z,86.75
2023-03-11T21:30:15.356Z,81.25
2023-03-11T21:31:53.419Z,81.50
2023-03-11T21:33:25.477Z,83.25
2023-03-11T21:34:58.390Z,82.50
2023-03-11T21:36:30.510Z,77.25
2023-03-11T21:38:02.501Z,79.75
2023-03-11T21:39:34.593Z,78.75
2023-03-11T21:41:09.723Z,72.75
2023-03-11T21:42:47.809Z,75.75
2023-03-11T21:44:21.101Z,77.00
2023-03-11T21:45:54.214Z,68.75
2023-03-11T21:47:26.589Z,68.80
2023-03-11T21:49:02.613Z,68.60
2023-03-11T21:50:35.834Z,68.20
2023-03-11T21:52:09.250Z,66.80
2023-03-11T21:53:46.201Z,63.80
2023-03-11T21:55:20.588Z,61.60
2023-03-11T21:56:54.354Z,59.25
2023-03-11T21:58:27.701Z,60.00
2023-03-11T21:59:59.795Z,58.50
2023-03-11T22:01:32.021Z,59.50
2023-03-11T22:03:04.206Z,51.00
2023-03-11T22:04:36.490Z,52.00
2023-03-11T22:07:01.504Z,52.25
2023-03-11T22:09:02.742Z,44.00
2023-03-11T22:11:19.543Z,46.00
2023-03-11T22:12:53.239Z,45.75
2023-03-11T22:14:26.006Z,47.25
2023-03-11T22:15:58.010Z,42.75
2023-03-11T22:17:30.055Z,35.75
2023-03-11T22:19:04.430Z,36.75
2023-03-11T22:20:37.213Z,39.00
2023-03-11T22:22:15.319Z,36.75
2023-03-11T22:23:49.745Z,38.50
2023-03-11T22:25:21.729Z,34.50
2023-03-11T22:26:53.795Z,35.75
2023-03-11T22:28:28.799Z,36.50
2023-03-11T22:30:00.728Z,33.50
2023-03-11T22:31:32.629Z,34.25
2023-03-11T22:33:04.674Z,34.00
2023-03-11T22:34:36.599Z,32.75
2023-03-11T22:36:09.596Z,31.80
2023-03-11T22:37:46.083Z,32.50
2023-03-11T22:39:23.754Z,31.00
2023-03-11T22:40:55.598Z,30.60
2023-03-11T22:42:27.424Z,27.00
2023-03-11T22:43:59.469Z,28.40
2023-03-11T22:46:26.117Z,28.40
2023-03-11T22:47:58.240Z,27.60
2023-03-11T22:49:30.450Z,27.20
2023-03-11T22:51:02.555Z,27.00
2023-03-11T22:52:34.382Z,26.60
2023-03-11T22:54:33.101Z,26.80
2023-03-11T22:56:16.098Z,26.60
2023-03-11T22:57:50.619Z,26.20
2023-03-11T22:59:22.730Z,24.40
2023-03-11T23:00:54.697Z,24.20
2023-03-11T23:02:31.358Z,24.60
2023-03-11T23:04:13.065Z,22.80
2023-03-11T23:05:49.747Z,22.60
2023-03-11T23:07:23.998Z,22.20
2023-03-11T23:08:55.986Z,22.20
2023-03-11T23:10:28.124Z,20.60
2023-03-11T23:12:04.765Z,20.20
2023-03-11T23:13:37.192Z,21.40
2023-03-11T23:15:14.208Z,20.20
2023-03-11T23:16:46.244Z,21.20
2023-03-11T23:20:23.110Z,20.20
2023-03-11T23:21:56.939Z,19.80
2023-03-11T23:23:32.887Z,17.80
2023-03-11T23:25:55.341Z,17.40
2023-03-11T23:27:29.202Z,17.40
2023-03-11T23:29:02.013Z,17.40
2023-03-11T23:30:34.160Z,16.80
2023-03-11T23:32:08.201Z,16.40
2023-03-11T23:33:43.905Z,17.00
